createdAt,value
2023-02-05T00:03:58.289Z,-5.72
2023-02-05T00:08:59.401Z,-5.70
2023-02-05T00:13:58.313Z,-5.60
2023-02-05T00:18:59.440Z,-5.50
2023-02-05T00:23:58.989Z,-5.48
2023-02-05T00:28:57.732Z,-5.40
2023-02-05T00:33:56.754Z,-5.30
2023-02-05T00:38:55.987Z,-5.20
2023-02-05T00:43:55.039Z,-5.14
2023-02-05T00:48:54.486Z,-5.10
2023-02-05T00:53:53.947Z,-5.00
2023-02-05T00:58:53.540Z,-4.90
2023-02-05T01:03:53.577Z,-4.90
2023-02-05T01:08:53.089Z,-4.80
2023-02-05T01:13:52.145Z,-4.70
2023-02-05T01:18:52.957Z,-4.70
2023-02-05T01:23:51.666Z,-4.60
2023-02-05T01:28:51.440Z,-4.54
2023-02-05T01:33:51.734Z,-4.50
2023-02-05T01:38:53.144Z,-4.40
2023-02-05T01:44:15.148Z,-4.40
2023-02-05T01:49:22.833Z,-4.40
2023-02-05T01:54:30.948Z,-4.40
2023-02-05T01:59:34.819Z,-4.40
2023-02-05T02:04:42.845Z,-4.32
2023-02-05T02:09:46.348Z,-4.30
2023-02-05T02:14:53.385Z,-4.30
2023-02-05T02:20:02.328Z,-4.30
2023-02-05T02:25:32.914Z,-4.30
2023-02-05T02:30:41.984Z,-4.26
2023-02-05T02:35:53.465Z,-4.26
2023-02-05T02:40:56.967Z,-4.26
2023-02-05T02:46:05.546Z,-4.30
2023-02-05T02:51:07.568Z,-4.30
2023-02-05T02:56:12.185Z,-4.20
2023-02-05T03:01:16.827Z,-4.20
2023-02-05T03:06:18.330Z,-4.10
2023-02-05T03:11:18.798Z,-4.10
2023-02-05T03:16:21.271Z,-4.10
2023-02-05T03:21:26.588Z,-4.20
2023-02-05T03:26:32.262Z,-4.20
2023-02-05T03:31:50.978Z,-4.10
2023-02-05T03:37:06.940Z,-4.12
2023-02-05T03:42:21.422Z,-4.20
2023-02-05T03:47:39.344Z,-4.30
2023-02-05T03:52:45.576Z,-4.30
2023-02-05T03:57:53.873Z,-4.32
2023-02-05T04:02:54.615Z,-4.40
2023-02-05T04:07:57.213Z,-4.40
2023-02-05T04:13:00.026Z,-4.40
2023-02-05T04:17:59.293Z,-4.34
2023-02-05T04:23:00.030Z,-4.30
2023-02-05T04:28:00.909Z,-4.32
2023-02-05T04:33:00.864Z,-4.30
2023-02-05T04:38:01.998Z,-4.30
2023-02-05T04:43:02.157Z,-4.30
2023-02-05T04:48:01.525Z,-4.30
2023-02-05T04:53:02.568Z,-4.30
2023-02-05T04:58:03.122Z,-4.30
2023-02-05T05:03:03.118Z,-4.38
2023-02-05T05:08:04.840Z,-4.40
2023-02-05T05:13:04.666Z,-4.30
2023-02-05T05:18:04.192Z,-4.30
2023-02-05T05:23:03.435Z,-4.36
2023-02-05T05:28:02.858Z,-4.40
2023-02-05T05:33:01.728Z,-4.40
2023-02-05T05:38:03.079Z,-4.40
2023-02-05T05:43:19.963Z,-4.40
2023-02-05T05:48:19.337Z,-4.40
2023-02-05T05:53:18.719Z,-4.40
2023-02-05T05:58:19.035Z,-4.40
2023-02-05T06:03:18.007Z,-4.40
2023-02-05T06:08:16.730Z,-4.40
2023-02-05T06:13:16.925Z,-4.40
2023-02-05T06:18:16.463Z,-4.40
2023-02-05T06:23:16.219Z,-4.40
2023-02-05T06:28:15.528Z,-4.42
2023-02-05T06:33:14.729Z,-4.40
2023-02-05T06:38:14.272Z,-4.40
2023-02-05T06:43:14.460Z,-4.42
2023-02-05T06:48:13.664Z,-4.50
2023-02-05T06:53:13.212Z,-4.48
2023-02-05T06:58:12.711Z,-4.40
2023-02-05T07:03:12.812Z,-4.40
2023-02-05T07:08:11.571Z,-4.40
2023-02-05T07:13:11.044Z,-4.40
2023-02-05T07:18:10.425Z,-4.30
2023-02-05T07:23:10.041Z,-4.22
2023-02-05T07:28:11.552Z,-4.20
2023-02-05T07:33:10.401Z,-4.10
2023-02-05T07:38:11.020Z,-4.04
2023-02-05T07:43:10.573Z,-4.00
2023-02-05T07:48:10.690Z,-3.98
2023-02-05T07:53:09.840Z,-3.90
2023-02-05T07:58:10.069Z,-3.80
2023-02-05T08:03:10.613Z,-3.70
2023-02-05T08:08:12.067Z,-3.54
2023-02-05T08:13:11.612Z,-3.40
2023-02-05T08:18:11.367Z,-3.30
2023-02-05T08:23:10.580Z,-3.20
2023-02-05T08:28:10.565Z,-3.10
2023-02-05T08:33:09.899Z,-3.00
2023-02-05T08:38:09.249Z,-3.00
2023-02-05T08:43:08.941Z,-2.90
2023-02-05T08:48:08.834Z,-2.90
2023-02-05T08:53:08.348Z,-2.82
2023-02-05T08:58:07.029Z,-2.70
2023-02-05T09:03:06.789Z,-2.50
2023-02-05T09:08:05.416Z,-2.30
2023-02-05T09:13:06.513Z,-1.96
2023-02-05T09:18:05.439Z,-1.70
2023-02-05T09:23:04.663Z,-1.44
2023-02-05T09:28:04.082Z,-1.26
2023-02-05T09:33:03.007Z,-1.12
2023-02-05T09:38:03.583Z,-1.10
2023-02-05T09:43:15.786Z,-1.10
2023-02-05T09:48:46.850Z,-1.10
2023-02-05T09:53:55.541Z,-1.10
2023-02-05T09:58:59.610Z,-1.10
2023-02-05T10:04:06.277Z,-1.10
2023-02-05T10:09:18.886Z,-1.10
2023-02-05T10:14:36.416Z,-1.10
2023-02-05T10:20:10.255Z,-1.00
2023-02-05T10:25:56.558Z,-0.90
2023-02-05T10:31:04.840Z,-0.70
2023-02-05T10:36:09.093Z,-0.60
2023-02-05T10:41:21.495Z,-0.60
2023-02-05T10:46:23.440Z,-0.70
2023-02-05T10:51:33.463Z,-0.70
2023-02-05T10:56:32.631Z,-0.80
2023-02-05T11:01:38.873Z,-0.80
2023-02-05T11:06:45.346Z,-0.76
2023-02-05T11:11:44.542Z,-0.70
2023-02-05T11:16:48.674Z,-0.50
2023-02-05T11:22:02.442Z,-0.40
2023-02-05T11:27:33.592Z,-0.20
2023-02-05T11:32:46.213Z,-0.04
2023-02-05T11:37:46.736Z,0.00
2023-02-05T11:43:11.566Z,-0.20
2023-02-05T11:48:31.746Z,-0.30
2023-02-05T11:53:33.152Z,-0.30
2023-02-05T11:58:37.401Z,-0.36
2023-02-05T12:03:38.269Z,-0.50
2023-02-05T12:08:57.846Z,-0.70
2023-02-05T12:14:08.416Z,-0.88
2023-02-05T12:19:19.772Z,-0.90
2023-02-05T12:24:51.475Z,-0.80
2023-02-05T12:30:21.370Z,-0.70
2023-02-05T12:35:44.009Z,-0.70
2023-02-05T12:40:59.105Z,-0.60
2023-02-05T12:46:07.414Z,-0.50
2023-02-05T12:51:26.492Z,-0.70
2023-02-05T12:56:45.203Z,-0.86
2023-02-05T13:01:52.791Z,-1.00
2023-02-05T13:07:00.025Z,-1.10
2023-02-05T13:12:07.320Z,-1.10
2023-02-05T13:17:13.888Z,-1.20
2023-02-05T13:22:39.949Z,-1.20
2023-02-05T13:28:01.254Z,-1.10
2023-02-05T13:33:06.794Z,-1.00
2023-02-05T13:38:39.403Z,-1.00
2023-02-05T13:44:19.021Z,-1.00
2023-02-05T13:50:00.558Z,-1.00
2023-02-05T13:55:25.159Z,-0.90
2023-02-05T14:00:26.204Z,-0.80
2023-02-05T14:05:37.026Z,-0.80
2023-02-05T14:10:41.622Z,-0.80
2023-02-05T14:15:46.829Z,-0.76
2023-02-05T14:20:50.080Z,-0.80
2023-02-05T14:26:13.934Z,-0.80
2023-02-05T14:31:59.263Z,-0.84
2023-02-05T14:37:00.586Z,-1.00
2023-02-05T14:42:01.463Z,-1.00
2023-02-05T14:47:06.691Z,-1.10
2023-02-05T14:52:17.753Z,-1.14
2023-02-05T14:57:26.385Z,-1.20
2023-02-05T15:03:02.686Z,-1.36
2023-02-05T15:08:16.352Z,-1.50
2023-02-05T15:13:17.776Z,-1.70
2023-02-05T15:18:33.427Z,-1.80
2023-02-05T15:23:46.445Z,-1.94
2023-02-05T15:28:55.907Z,-2.10
2023-02-05T15:34:04.431Z,-2.10
2023-02-05T15:39:19.906Z,-2.20
2023-02-05T15:44:31.190Z,-2.20
2023-02-05T15:49:41.862Z,-2.30
2023-02-05T15:54:41.253Z,-2.30
2023-02-05T15:59:41.212Z,-2.30
2023-02-05T16:04:42.720Z,-2.30
2023-02-05T16:09:49.496Z,-2.30
2023-02-05T16:14:59.124Z,-2.32
2023-02-05T16:20:20.986Z,-2.40
2023-02-05T16:25:40.556Z,-2.40
2023-02-05T16:30:44.204Z,-2.34
2023-02-05T16:35:49.948Z,-2.30
2023-02-05T16:40:53.682Z,-2.30
2023-02-05T16:46:29.049Z,-2.30
2023-02-05T16:51:56.362Z,-2.30
2023-02-05T16:57:04.142Z,-2.30
2023-02-05T17:02:03.777Z,-2.30
2023-02-05T17:07:08.978Z,-2.30
2023-02-05T17:12:41.345Z,-2.30
2023-02-05T17:17:53.006Z,-2.30
2023-02-05T17:23:20.759Z,-2.30
2023-02-05T17:28:25.065Z,-2.30
2023-02-05T17:33:28.632Z,-2.30
2023-02-05T17:38:28.341Z,-2.30
2023-02-05T17:43:27.669Z,-2.34
2023-02-05T17:48:26.667Z,-2.40
2023-02-05T17:53:26.058Z,-2.40
2023-02-05T17:58:25.695Z,-2.50
2023-02-05T18:03:25.048Z,-2.52
2023-02-05T18:08:25.253Z,-2.60
2023-02-05T18:13:24.440Z,-2.70
2023-02-05T18:18:23.402Z,-2.80
2023-02-05T18:23:28.786Z,-3.00
2023-02-05T18:28:29.152Z,-3.10
2023-02-05T18:33:28.711Z,-3.28
2023-02-05T18:38:27.891Z,-3.40
2023-02-05T18:43:27.557Z,-3.50
2023-02-05T18:48:27.281Z,-3.60
2023-02-05T18:53:28.231Z,-3.80
2023-02-05T18:58:30.403Z,-3.90
2023-02-05T19:03:30.866Z,-4.00
2023-02-05T19:08:31.991Z,-4.04
2023-02-05T19:13:31.852Z,-4.10
2023-02-05T19:18:32.160Z,-4.20
2023-02-05T19:23:33.083Z,-4.30
2023-02-05T19:28:32.898Z,-4.36
2023-02-05T19:33:33.930Z,-4.40
2023-02-05T19:38:35.613Z,-4.40
2023-02-05T19:43:35.490Z,-4.50
2023-02-05T19:48:36.134Z,-4.54
2023-02-05T19:53:36.325Z,-4.60
2023-02-05T19:58:38.008Z,-4.60
2023-02-05T20:03:39.588Z,-4.70
2023-02-05T20:08:39.545Z,-4.80
2023-02-05T20:13:40.793Z,-4.90
2023-02-05T20:18:40.892Z,-4.92
2023-02-05T20:23:41.879Z,-5.00
2023-02-05T20:28:57.042Z,-5.10
2023-02-05T20:33:56.532Z,-5.20
2023-02-05T20:39:01.163Z,-5.24
2023-02-05T20:44:01.245Z,-5.30
2023-02-05T20:49:01.579Z,-5.30
2023-02-05T20:54:05.196Z,-5.30
2023-02-05T20:59:08.004Z,-5.40
2023-02-05T21:04:10.949Z,-5.50
2023-02-05T21:09:11.812Z,-5.60
2023-02-05T21:14:11.700Z,-5.70
2023-02-05T21:19:12.478Z,-5.80
2023-02-05T21:24:16.526Z,-5.90
2023-02-05T21:29:20.109Z,-5.90
2023-02-05T21:34:37.367Z,-6.00
2023-02-05T21:39:37.673Z,-6.02
2023-02-05T21:44:36.646Z,-6.10
2023-02-05T21:49:36.103Z,-6.10
2023-02-05T21:54:36.690Z,-6.10
2023-02-05T21:59:36.005Z,-6.16
2023-02-05T22:04:35.596Z,-6.20
2023-02-05T22:09:35.622Z,-6.20
2023-02-05T22:14:35.758Z,-6.20
2023-02-05T22:19:36.235Z,-6.30
2023-02-05T22:24:36.222Z,-6.30
2023-02-05T22:29:36.821Z,-6.30
2023-02-05T22:34:36.505Z,-6.40
2023-02-05T22:39:37.365Z,-6.40
2023-02-05T22:44:37.987Z,-6.40
2023-02-05T22:49:36.971Z,-6.44
2023-02-05T22:54:36.932Z,-6.50
2023-02-05T22:59:36.466Z,-6.50
2023-02-05T23:04:36.565Z,-6.50
2023-02-05T23:09:35.848Z,-6.50
2023-02-05T23:14:35.056Z,-6.40
2023-02-05T23:19:34.922Z,-6.40
2023-02-05T23:24:36.874Z,-6.42
2023-02-05T23:29:37.044Z,-6.50
2023-02-05T23:34:36.640Z,-6.50
2023-02-05T23:39:36.583Z,-6.50
2023-02-05T23:44:36.370Z,-6.50
2023-02-05T23:49:35.127Z,-6.54
2023-02-05T23:54:34.512Z,-6.60
2023-02-05T23:59:33.724Z,-6.60
